Time;durP1;ratioP1;P1;durP2;ratioP2;P2;SDS_P1;SDS_P2;PMS_P1;PMS_P2;Temp;Humidity;BMP_temperature;BMP_pressure;BME280_temperature;BME280_humidity;BME280_pressure;Samples;Min_cycle;Max_cycle;Signal;HPM_P1;HPM_P2
2023/06/05 00:00:44;;;;;;;3.25;1.85;;;14.10;99.90;;;;;;5104769;28;20050;-64
2023/06/05 00:03:09;;;;;;;4.90;1.73;;;14.20;99.90;;;;;;5108572;28;20031;-64
2023/06/05 00:05:36;;;;;;;2.17;1.60;;;14.20;99.90;;;;;;5106975;28;20035;-63
2023/06/05 00:08:01;;;;;;;5.07;1.65;;;14.30;99.90;;;;;;5106052;28;20019;-63
2023/06/05 00:10:27;;;;;;;4.18;1.83;;;14.40;99.90;;;;;;5106410;28;20653;-64
2023/06/05 00:12:53;;;;;;;4.13;2.05;;;14.50;99.90;;;;;;5104853;28;20028;-59
2023/06/05 00:15:18;;;;;;;4.82;1.98;;;14.40;99.90;;;;;;5109220;28;20059;-63
2023/06/05 00:17:45;;;;;;;6.28;1.67;;;14.10;99.90;;;;;;5108892;28;20039;-63
2023/06/05 00:20:11;;;;;;;4.90;1.88;;;;;;;;;;5107156;28;20027;-63
2023/06/05 00:22:38;;;;;;;2.53;1.65;;;13.70;99.90;;;;;;5104660;28;20031;-64
2023/06/05 00:25:04;;;;;;;4.65;2.20;;;13.70;99.90;;;;;;5107217;28;20053;-64
2023/06/05 00:27:30;;;;;;;2.58;1.90;;;13.70;99.90;;;;;;5106849;28;20024;-64
2023/06/05 00:29:56;;;;;;;6.65;2.30;;;13.70;99.90;;;;;;5105716;28;20023;-63
2023/06/05 00:32:21;;;;;;;3.28;1.75;;;13.60;99.90;;;;;;5107568;28;20055;-64
2023/06/05 00:34:49;;;;;;;6.57;1.85;;;13.60;99.90;;;;;;5107876;28;20114;-63
2023/06/05 00:37:15;;;;;;;4.45;1.95;;;13.50;99.90;;;;;;5104743;28;20039;-64
2023/06/05 00:39:41;;;;;;;4.97;1.95;;;13.50;99.90;;;;;;5106008;28;20100;-64
2023/06/05 00:42:10;;;;;;;2.75;1.77;;;13.60;99.90;;;;;;5107022;28;20035;-63
2023/06/05 00:44:36;;;;;;;4.47;1.90;;;13.50;99.90;;;;;;5101156;28;20031;-63
2023/06/05 00:47:04;;;;;;;5.78;2.00;;;13.50;99.90;;;;;;5099065;28;20030;-63
2023/06/05 00:49:30;;;;;;;2.65;2.00;;;13.60;99.90;;;;;;5100805;28;20123;-63
2023/06/05 00:51:57;;;;;;;6.05;1.85;;;13.60;99.90;;;;;;5099170;28;20103;-64
2023/06/05 00:54:22;;;;;;;3.58;1.60;;;13.60;99.90;;;;;;5103286;28;20031;-64
2023/06/05 00:56:48;;;;;;;3.95;2.22;;;13.50;99.90;;;;;;5105792;28;20698;-64
2023/06/05 00:59:15;;;;;;;3.50;1.90;;;13.40;99.90;;;;;;5102983;28;20024;-64
2023/06/05 01:01:42;;;;;;;3.40;1.88;;;13.40;99.90;;;;;;5107553;27;20027;-64
2023/06/05 01:04:08;;;;;;;9.32;2.05;;;13.30;99.90;;;;;;5109173;28;20054;-63
2023/06/05 01:06:34;;;;;;;2.97;1.90;;;13.20;99.90;;;;;;5103859;28;20063;-61
2023/06/05 01:09:01;;;;;;;5.55;1.92;;;13.10;99.90;;;;;;5109841;28;20080;-64
2023/06/05 01:11:40;;;;;;;2.70;1.95;;;13.10;99.90;;;;;;5105962;28;20695;-64
2023/06/05 01:14:09;;;;;;;2.78;1.75;;;13.20;99.90;;;;;;5109789;28;20102;-64
2023/06/05 01:16:36;;;;;;;7.03;2.03;;;13.10;99.90;;;;;;5111305;28;20024;-62
2023/06/05 01:19:02;;;;;;;5.20;2.20;;;13.10;99.90;;;;;;5112762;28;20065;-60
2023/06/05 01:21:35;;;;;;;3.35;2.08;;;13.10;99.90;;;;;;5111047;28;20019;-63
2023/06/05 01:24:01;;;;;;;4.32;2.13;;;13.10;99.90;;;;;;5107577;28;20052;-63
2023/06/05 01:26:52;;;;;;;4.03;1.90;;;13.10;99.90;;;;;;5109627;28;20050;-63
2023/06/05 01:29:24;;;;;;;3.45;2.17;;;13.10;99.90;;;;;;5111417;28;20020;-63
2023/06/05 01:31:56;;;;;;;3.53;1.75;;;13.10;99.90;;;;;;5110311;28;20055;-64
2023/06/05 01:34:24;;;;;;;5.63;1.85;;;13.10;99.90;;;;;;5109138;28;20023;-64
2023/06/05 01:36:52;;;;;;;3.22;1.88;;;13.10;99.90;;;;;;5110871;27;20485;-63
2023/06/05 01:39:19;;;;;;;4.38;1.73;;;13.10;99.90;;;;;;5107084;28;20072;-62
2023/06/05 01:41:46;;;;;;;4.22;1.75;;;13.00;99.90;;;;;;5112005;28;20036;-62
2023/06/05 01:44:15;;;;;;;9.52;1.92;;;13.00;99.90;;;;;;5107487;28;20062;-62
2023/06/05 01:46:41;;;;;;;4.00;2.10;;;13.00;99.90;;;;;;5108889;28;20024;-63
2023/06/05 01:49:08;;;;;;;6.45;1.70;;;13.00;99.90;;;;;;5110699;28;20027;-63
2023/06/05 01:51:34;;;;;;;4.85;2.20;;;13.00;99.90;;;;;;5108271;28;20096;-63
2023/06/05 01:54:00;;;;;;;2.60;1.63;;;13.00;99.90;;;;;;5110443;28;20059;-63
2023/06/05 01:56:25;;;;;;;2.70;1.75;;;13.00;99.90;;;;;;5107514;28;20547;-62
2023/06/05 01:58:53;;;;;;;10.80;2.28;;;13.00;99.90;;;;;;5109240;28;20127;-63
2023/06/05 02:01:22;;;;;;;7.93;1.65;;;13.10;99.90;;;;;;5109238;28;20034;-64
2023/06/05 02:03:49;;;;;;;6.25;2.10;;;13.20;99.90;;;;;;5110480;28;20031;-62
2023/06/05 02:06:16;;;;;;;3.40;1.67;;;13.30;99.90;;;;;;5106445;28;20034;-63
2023/06/05 02:08:42;;;;;;;4.82;1.70;;;13.40;99.90;;;;;;5110413;28;20115;-63
2023/06/05 02:11:10;;;;;;;4.60;1.63;;;13.50;99.90;;;;;;5106162;28;20102;-63
2023/06/05 02:13:37;;;;;;;3.78;1.85;;;13.60;99.90;;;;;;5107921;28;20034;-62
2023/06/05 02:16:03;;;;;;;8.77;2.13;;;13.60;99.90;;;;;;5106717;28;20039;-62
2023/06/05 02:18:30;;;;;;;4.65;2.05;;;13.70;99.90;;;;;;5104087;27;20084;-63
2023/06/05 02:20:56;;;;;;;6.35;2.05;;;13.70;99.90;;;;;;5109652;28;20020;-63
2023/06/05 02:23:22;;;;;;;8.27;1.95;;;13.70;99.90;;;;;;5112309;28;20031;-63
2023/06/05 02:25:48;;;;;;;4.75;2.25;;;13.70;99.90;;;;;;5109666;28;20072;-63
2023/06/05 02:28:15;;;;;;;2.20;1.35;;;13.60;99.90;;;;;;5108925;28;20456;-63
2023/06/05 02:30:44;;;;;;;6.22;1.70;;;13.60;99.90;;;;;;5105934;28;20557;-63
2023/06/05 02:33:10;;;;;;;6.03;2.22;;;13.60;99.90;;;;;;5110768;28;20051;-63
2023/06/05 02:35:36;;;;;;;7.63;2.08;;;13.60;99.90;;;;;;5111249;28;20019;-63
2023/06/05 02:38:04;;;;;;;4.03;2.00;;;13.60;99.90;;;;;;5108616;28;20573;-63
2023/06/05 02:40:30;;;;;;;4.22;2.13;;;13.60;99.90;;;;;;5109156;28;20062;-62
2023/06/05 02:42:56;;;;;;;3.05;1.83;;;13.50;99.90;;;;;;5109628;28;20051;-63
2023/06/05 02:45:21;;;;;;;5.50;2.15;;;13.60;99.90;;;;;;5110034;28;20791;-63
2023/06/05 02:47:48;;;;;;;10.75;2.35;;;13.50;99.90;;;;;;5108841;28;20538;-63
2023/06/05 02:50:14;;;;;;;3.47;1.90;;;13.50;99.90;;;;;;5108624;28;20509;-63
2023/06/05 02:52:40;;;;;;;3.63;1.88;;;13.50;99.90;;;;;;5109532;28;20028;-61
2023/06/05 02:55:07;;;;;;;3.30;1.90;;;13.50;99.90;;;;;;5111816;28;20756;-62
2023/06/05 02:57:41;;;;;;;3.83;2.30;;;13.30;99.90;;;;;;5106342;28;20077;-62
2023/06/05 03:00:09;;;;;;;4.80;1.98;;;13.20;99.90;;;;;;5107654;28;20024;-61
2023/06/05 03:02:36;;;;;;;6.25;2.00;;;13.00;99.90;;;;;;5104255;28;20043;-62
2023/06/05 03:05:03;;;;;;;3.17;1.70;;;12.90;99.90;;;;;;5106043;28;20028;-62
2023/06/05 03:07:29;;;;;;;4.13;1.92;;;12.80;99.90;;;;;;5104499;28;20019;-62
2023/06/05 03:09:55;;;;;;;3.03;1.98;;;12.60;99.90;;;;;;5105189;28;20046;-62
2023/06/05 03:12:21;;;;;;;4.40;2.10;;;12.60;99.90;;;;;;5104005;28;20085;-62
2023/06/05 03:14:46;;;;;;;3.72;2.20;;;12.40;99.90;;;;;;5105642;28;20032;-60
2023/06/05 03:17:12;;;;;;;6.97;2.17;;;12.40;99.90;;;;;;5109413;27;20027;-62
2023/06/05 03:19:37;;;;;;;3.53;1.98;;;12.20;99.90;;;;;;5109327;28;20038;-63
2023/06/05 03:22:04;;;;;;;5.95;2.65;;;12.20;99.90;;;;;;5105374;28;20024;-63
2023/06/05 03:24:29;;;;;;;8.77;1.90;;;12.10;99.90;;;;;;5104779;28;20023;-63
2023/06/05 03:26:55;;;;;;;3.45;1.70;;;12.00;99.90;;;;;;5106661;28;20019;-59
2023/06/05 03:29:20;;;;;;;6.28;2.63;;;11.90;99.90;;;;;;5104319;28;20016;-62
2023/06/05 03:31:46;;;;;;;4.43;2.33;;;11.90;99.90;;;;;;5105774;28;20035;-62
2023/06/05 03:34:12;;;;;;;8.60;2.15;;;11.80;99.90;;;;;;5106455;28;20155;-62
2023/06/05 03:36:39;;;;;;;9.20;2.33;;;11.80;99.90;;;;;;5105458;28;20034;-63
2023/06/05 03:39:05;;;;;;;4.88;2.28;;;11.70;99.90;;;;;;5106592;27;20035;-61
2023/06/05 03:41:31;;;;;;;6.22;2.45;;;11.70;99.90;;;;;;5105610;27;20043;-61
2023/06/05 03:43:56;;;;;;;8.95;2.67;;;11.60;99.90;;;;;;5103538;28;20031;-62
2023/06/05 03:46:23;;;;;;;5.07;2.15;;;11.60;99.90;;;;;;5106146;28;20026;-60
2023/06/05 03:48:49;;;;;;;6.80;2.15;;;11.60;99.90;;;;;;5108280;28;20064;-61
2023/06/05 03:51:18;;;;;;;5.55;2.70;;;11.60;99.90;;;;;;5104872;28;20030;-61
2023/06/05 03:53:44;;;;;;;4.57;2.67;;;11.60;99.90;;;;;;5112764;27;20154;-62
2023/06/05 03:56:10;;;;;;;6.50;2.47;;;11.60;99.90;;;;;;5109233;28;20048;-62
2023/06/05 03:58:36;;;;;;;4.55;2.22;;;11.60;99.90;;;;;;5107906;28;20475;-61
2023/06/05 04:01:01;;;;;;;7.07;2.85;;;11.60;99.90;;;;;;5109019;28;20019;-62
2023/06/05 04:03:27;;;;;;;7.40;2.28;;;11.70;99.90;;;;;;5110273;28;20393;-61
2023/06/05 04:05:52;;;;;;;11.70;3.50;;;11.70;99.90;;;;;;5106738;28;20485;-61
2023/06/05 04:08:18;;;;;;;7.03;2.60;;;11.70;99.90;;;;;;5108536;28;20031;-62
2023/06/05 04:10:44;;;;;;;6.35;2.38;;;11.80;99.90;;;;;;5109665;28;20024;-62
2023/06/05 04:13:10;;;;;;;3.67;2.00;;;11.70;99.90;;;;;;5106271;28;20023;-62
2023/06/05 04:15:36;;;;;;;11.95;2.63;;;11.80;99.90;;;;;;5103044;28;20027;-62
2023/06/05 04:18:02;;;;;;;7.55;3.00;;;11.80;99.90;;;;;;5109072;28;20024;-62
2023/06/05 04:20:28;;;;;;;6.65;2.47;;;11.90;99.90;;;;;;5110773;28;20513;-63
2023/06/05 04:22:53;;;;;;;5.80;2.30;;;11.90;99.90;;;;;;5109533;28;20034;-62
2023/06/05 04:25:19;;;;;;;11.55;2.40;;;11.90;99.90;;;;;;5109241;28;20027;-63
2023/06/05 04:27:48;;;;;;;9.27;2.65;;;11.90;99.90;;;;;;5107583;28;20058;-62
2023/06/05 04:30:14;;;;;;;4.95;2.33;;;12.00;99.90;;;;;;5109129;28;20442;-62
2023/06/05 04:32:41;;;;;;;7.15;2.78;;;12.00;99.90;;;;;;5110674;28;20080;-63
2023/06/05 04:35:08;;;;;;;6.72;2.63;;;12.10;99.90;;;;;;5108438;28;20398;-63
2023/06/05 04:37:35;;;;;;;11.50;3.05;;;12.20;99.90;;;;;;5114074;28;20554;-58
2023/06/05 04:40:05;;;;;;;5.68;3.00;;;12.20;99.90;;;;;;5114886;28;20526;-63
2023/06/05 04:42:32;;;;;;;6.53;2.55;;;12.30;99.90;;;;;;5105962;28;20046;-64
2023/06/05 04:45:02;;;;;;;10.20;2.72;;;12.40;99.90;;;;;;5111096;28;20489;-63
2023/06/05 04:47:28;;;;;;;9.02;3.10;;;12.50;99.90;;;;;;5113051;27;20043;-63
2023/06/05 04:49:54;;;;;;;11.13;3.65;;;12.60;99.90;;;;;;5114491;28;20058;-63
2023/06/05 04:52:21;;;;;;;6.65;2.92;;;12.80;99.90;;;;;;5111988;28;20512;-63
2023/06/05 04:54:47;;;;;;;8.45;3.15;;;12.90;99.90;;;;;;5110042;28;20028;-61
2023/06/05 04:57:12;;;;;;;8.13;2.80;;;12.90;99.90;;;;;;5107758;28;20027;-63
2023/06/05 04:59:38;;;;;;;10.82;3.13;;;12.90;99.90;;;;;;5108620;28;20393;-63
2023/06/05 05:02:04;;;;;;;5.47;3.35;;;12.90;99.90;;;;;;5112853;28;20027;-60
2023/06/05 05:04:29;;;;;;;6.30;3.05;;;13.00;99.90;;;;;;5111959;28;20460;-64
2023/06/05 05:07:01;;;;;;;10.60;3.05;;;13.10;99.90;;;;;;5110154;28;20031;-63
2023/06/05 05:09:32;;;;;;;4.30;2.83;;;13.10;99.90;;;;;;5111893;28;20023;-62
2023/06/05 05:11:58;;;;;;;7.68;2.88;;;13.20;99.90;;;;;;5111852;28;20023;-64
2023/06/05 05:14:26;;;;;;;9.48;3.33;;;13.30;99.90;;;;;;5110198;28;20028;-64
2023/06/05 05:16:52;;;;;;;7.35;3.17;;;13.30;99.90;;;;;;5106967;28;20023;-63
2023/06/05 05:19:18;;;;;;;5.97;3.10;;;13.40;99.90;;;;;;5110493;28;20043;-63
2023/06/05 05:21:45;;;;;;;5.47;3.28;;;13.50;99.90;;;;;;5109333;28;20051;-64
2023/06/05 05:24:11;;;;;;;13.95;3.35;;;13.50;99.90;;;;;;5106107;28;20030;-63
2023/06/05 05:26:39;;;;;;;5.72;3.10;;;13.60;99.90;;;;;;5109360;28;20020;-64
2023/06/05 05:29:05;;;;;;;12.55;3.28;;;13.70;99.90;;;;;;5109942;27;20023;-62
2023/06/05 05:31:31;;;;;;;9.50;3.55;;;13.70;99.90;;;;;;5108468;28;20028;-63
2023/06/05 05:33:58;;;;;;;6.57;3.65;;;13.80;99.90;;;;;;5108106;28;20043;-63
2023/06/05 05:36:24;;;;;;;15.43;3.75;;;13.90;99.90;;;;;;5109096;28;20012;-62
2023/06/05 05:38:50;;;;;;;7.45;3.63;;;14.00;99.90;;;;;;5103723;28;20038;-62
2023/06/05 05:41:15;;;;;;;8.35;3.47;;;14.10;99.90;;;;;;5108261;28;20031;-62
2023/06/05 05:43:41;;;;;;;10.43;3.50;;;14.20;99.90;;;;;;5105381;27;20043;-62
2023/06/05 05:46:06;;;;;;;13.07;3.85;;;14.20;99.90;;;;;;5106157;27;20049;-63
2023/06/05 05:48:35;;;;;;;27.17;5.35;;;14.30;99.90;;;;;;5109762;28;20030;-63
2023/06/05 05:51:01;;;;;;;19.55;3.83;;;14.30;99.90;;;;;;5110733;28;20047;-64
2023/06/05 05:53:26;;;;;;;10.48;4.43;;;14.40;99.90;;;;;;5106136;28;20056;-63
2023/06/05 05:55:52;;;;;;;11.82;4.30;;;14.50;99.90;;;;;;5108181;28;20047;-61
2023/06/05 05:58:18;;;;;;;10.70;4.03;;;14.60;99.90;;;;;;5107688;28;20099;-59
2023/06/05 06:00:43;;;;;;;11.73;4.10;;;14.70;99.90;;;;;;5109336;28;20020;-63
2023/06/05 06:03:09;;;;;;;11.15;3.75;;;14.70;99.90;;;;;;5109757;28;20042;-61
2023/06/05 06:05:35;;;;;;;8.30;3.60;;;14.80;99.90;;;;;;5106984;28;20027;-63
2023/06/05 06:08:03;;;;;;;9.35;3.97;;;14.80;99.90;;;;;;5109627;28;20477;-63
2023/06/05 06:10:28;;;;;;;9.15;4.28;;;14.90;99.90;;;;;;5108571;28;20062;-63
2023/06/05 06:12:54;;;;;;;14.95;4.68;;;15.00;99.90;;;;;;5107695;28;20425;-63
2023/06/05 06:15:20;;;;;;;10.38;4.05;;;15.10;99.90;;;;;;5109499;28;20110;-62
2023/06/05 06:17:45;;;;;;;9.70;4.15;;;15.10;99.90;;;;;;5111108;28;20097;-62
2023/06/05 06:20:12;;;;;;;11.65;3.45;;;15.20;99.90;;;;;;5110548;28;20024;-64
2023/06/05 06:22:38;;;;;;;7.93;4.05;;;15.30;99.90;;;;;;5105770;28;20035;-63
2023/06/05 06:25:04;;;;;;;11.85;4.90;;;15.30;99.90;;;;;;5109051;28;20024;-63
2023/06/05 06:27:30;;;;;;;9.25;3.70;;;15.40;99.90;;;;;;5105008;28;20108;-65
2023/06/05 06:29:56;;;;;;;10.48;3.78;;;15.50;99.90;;;;;;5107962;28;20039;-64
2023/06/05 06:32:23;;;;;;;9.02;4.90;;;15.60;99.90;;;;;;5106369;28;20108;-62
2023/06/05 06:34:48;;;;;;;14.50;3.78;;;15.60;99.90;;;;;;5106354;28;20418;-63
2023/06/05 06:37:15;;;;;;;9.90;3.72;;;15.70;99.90;;;;;;5106119;28;20138;-63
2023/06/05 06:39:42;;;;;;;9.85;3.58;;;15.80;99.90;;;;;;5109678;28;20047;-62
2023/06/05 06:42:10;;;;;;;14.38;3.20;;;15.90;99.90;;;;;;5107431;28;20570;-63
2023/06/05 06:44:36;;;;;;;13.43;3.40;;;16.00;99.90;;;;;;5107570;27;20032;-63
2023/06/05 06:47:01;;;;;;;8.52;4.15;;;16.00;99.90;;;;;;5108957;28;20027;-64
2023/06/05 06:49:27;;;;;;;17.63;5.40;;;16.00;99.90;;;;;;5109086;28;20537;-63
2023/06/05 06:51:53;;;;;;;11.43;3.60;;;16.10;99.90;;;;;;5103928;28;20067;-65
2023/06/05 06:54:18;;;;;;;11.75;3.53;;;16.20;99.90;;;;;;5108907;28;20028;-65
2023/06/05 06:56:44;;;;;;;9.07;3.95;;;16.30;99.90;;;;;;5103545;28;20035;-64
2023/06/05 06:59:14;;;;;;;7.28;2.88;;;16.30;99.90;;;;;;5104128;28;20031;-63
2023/06/05 07:01:47;;;;;;;10.23;3.50;;;16.40;99.90;;;;;;5101083;28;20504;-62
2023/06/05 07:04:19;;;;;;;9.40;3.70;;;16.50;99.90;;;;;;5101391;28;20034;-64
2023/06/05 07:06:46;;;;;;;6.40;3.30;;;16.60;99.90;;;;;;5104371;28;20521;-63
2023/06/05 07:09:11;;;;;;;15.15;3.80;;;16.70;99.90;;;;;;5102573;28;20023;-65
2023/06/05 07:11:37;;;;;;;9.07;3.28;;;16.70;99.90;;;;;;5100628;28;20035;-64
2023/06/05 07:14:03;;;;;;;13.00;3.45;;;16.70;99.90;;;;;;5098399;28;20016;-63
2023/06/05 07:16:29;;;;;;;9.02;3.15;;;16.80;99.90;;;;;;5101056;28;20031;-64
2023/06/05 07:18:55;;;;;;;9.13;3.13;;;16.80;99.90;;;;;;5103897;28;20089;-64
2023/06/05 07:21:21;;;;;;;8.98;3.03;;;16.90;99.90;;;;;;5102106;28;20028;-62
2023/06/05 07:23:53;;;;;;;10.05;3.20;;;17.10;99.90;;;;;;5101908;28;20039;-64
2023/06/05 07:26:19;;;;;;;7.15;3.05;;;17.10;99.90;;;;;;5102667;27;20016;-64
2023/06/05 07:28:46;;;;;;;11.52;3.40;;;17.20;99.90;;;;;;5097489;28;20107;-63
2023/06/05 07:31:13;;;;;;;11.75;3.25;;;17.30;99.90;;;;;;5100139;28;20032;-64
2023/06/05 07:33:38;;;;;;;8.80;3.28;;;17.40;99.90;;;;;;5103307;28;20027;-64
2023/06/05 07:36:04;;;;;;;8.65;3.20;;;17.40;99.90;;;;;;5099173;28;20042;-61
2023/06/05 07:38:30;;;;;;;7.63;2.65;;;17.50;99.90;;;;;;5101130;28;20061;-64
2023/06/05 07:40:58;;;;;;;8.38;3.30;;;17.60;99.90;;;;;;5102350;28;20110;-65
2023/06/05 07:43:24;;;;;;;9.13;3.05;;;17.60;99.90;;;;;;5100270;28;20024;-63
2023/06/05 07:45:50;;;;;;;10.13;3.30;;;17.80;99.90;;;;;;5099674;28;20493;-59
2023/06/05 07:48:15;;;;;;;3.85;2.22;;;17.80;99.90;;;;;;5108667;27;20036;-63
2023/06/05 07:50:41;;;;;;;6.10;2.38;;;17.90;99.90;;;;;;5107289;28;20027;-63
2023/06/05 07:53:06;;;;;;;10.48;2.70;;;18.00;99.90;;;;;;5106523;28;20023;-63
2023/06/05 07:55:32;;;;;;;19.00;3.60;;;18.00;99.90;;;;;;5106224;28;20646;-63
2023/06/05 07:57:59;;;;;;;8.45;2.58;;;18.10;99.90;;;;;;5104357;28;20470;-64
2023/06/05 08:00:26;;;;;;;10.23;3.00;;;18.20;99.90;;;;;;5102154;28;21228;-64
2023/06/05 08:02:53;;;;;;;10.85;2.60;;;18.30;99.90;;;;;;5104414;28;20027;-64
2023/06/05 08:05:19;;;;;;;12.75;3.20;;;18.40;99.90;;;;;;5103763;28;20012;-64
2023/06/05 08:07:45;;;;;;;9.23;2.65;;;18.50;99.90;;;;;;5103286;28;20023;-63
2023/06/05 08:10:11;;;;;;;7.30;2.88;;;18.50;99.90;;;;;;5107936;28;20038;-62
2023/06/05 08:12:37;;;;;;;14.55;2.70;;;18.60;99.90;;;;;;5102304;28;20055;-64
2023/06/05 08:15:03;;;;;;;4.72;2.80;;;18.60;99.90;;;;;;5111303;28;20058;-61
2023/06/05 08:17:28;;;;;;;8.63;2.83;;;18.60;99.90;;;;;;5107821;28;20050;-64
2023/06/05 08:19:54;;;;;;;7.43;2.72;;;18.80;99.90;;;;;;5109693;28;20103;-63
2023/06/05 08:22:19;;;;;;;12.73;3.22;;;19.00;99.90;;;;;;5111728;28;20081;-63
2023/06/05 08:24:45;;;;;;;10.80;2.55;;;19.10;99.90;;;;;;5103200;28;20024;-64
2023/06/05 08:27:11;;;;;;;9.05;2.75;;;19.30;99.90;;;;;;5112020;28;20030;-64
2023/06/05 08:29:37;;;;;;;7.65;2.50;;;19.40;99.90;;;;;;5112320;27;20028;-63
2023/06/05 08:32:05;;;;;;;9.55;2.70;;;19.40;99.90;;;;;;5111290;28;20393;-62
2023/06/05 08:34:32;;;;;;;9.07;3.13;;;19.40;99.90;;;;;;5109415;28;20027;-63
2023/06/05 08:36:58;;;;;;;10.30;2.88;;;19.50;99.90;;;;;;5109873;27;20040;-63
2023/06/05 08:39:27;;;;;;;9.68;2.40;;;19.60;99.90;;;;;;5110324;27;20460;-63
2023/06/05 08:41:59;;;;;;;9.32;2.75;;;19.60;99.90;;;;;;5109929;28;20086;-64
2023/06/05 08:44:26;;;;;;;13.75;3.35;;;19.70;99.90;;;;;;5111629;27;20057;-61
2023/06/05 08:46:55;;;;;;;5.85;2.60;;;19.80;99.90;;;;;;5112058;28;20035;-62
2023/06/05 08:49:25;;;;;;;11.85;3.15;;;19.80;99.90;;;;;;5111829;27;20023;-64
2023/06/05 08:51:54;;;;;;;11.65;2.60;;;19.90;99.90;;;;;;5108804;28;20031;-63
2023/06/05 08:54:20;;;;;;;10.80;3.05;;;19.90;99.90;;;;;;5108885;28;20027;-64
2023/06/05 08:56:48;;;;;;;10.18;2.95;;;20.10;99.90;;;;;;5106703;28;20029;-63
2023/06/05 08:59:18;;;;;;;6.35;2.83;;;20.20;99.90;;;;;;5110074;28;20085;-62
2023/06/05 09:01:47;;;;;;;8.95;2.75;;;20.20;99.90;;;;;;5109873;28;20019;-64
2023/06/05 09:04:12;;;;;;;13.20;2.75;;;20.30;99.90;;;;;;5109841;28;20397;-64
2023/06/05 09:06:39;;;;;;;6.22;2.75;;;20.40;99.90;;;;;;5105952;28;20024;-64
2023/06/05 09:09:05;;;;;;;7.13;2.65;;;20.40;99.90;;;;;;5110160;28;20075;-63
2023/06/05 09:11:31;;;;;;;6.28;2.50;;;20.50;99.90;;;;;;5107392;28;20066;-63
2023/06/05 09:13:59;;;;;;;9.90;2.55;;;20.60;99.90;;;;;;5107622;28;20023;-64
2023/06/05 09:16:37;;;;;;;4.80;2.45;;;20.70;99.90;;;;;;5110465;27;20542;-64
2023/06/05 09:19:04;;;;;;;7.35;2.10;;;20.90;99.90;;;;;;5106634;28;20012;-62
2023/06/05 09:21:33;;;;;;;6.55;2.45;;;21.00;99.90;;;;;;5109323;28;20459;-63
2023/06/05 09:24:11;;;;;;;7.00;2.65;;;21.10;99.90;;;;;;5105846;28;20023;-63
2023/06/05 09:26:57;;;;;;;6.53;2.28;;;21.20;99.90;;;;;;5102854;28;20042;-63
2023/06/05 09:29:26;;;;;;;5.53;2.35;;;21.30;99.90;;;;;;5105501;28;20137;-63
2023/06/05 09:31:53;;;;;;;6.78;2.70;;;21.30;99.90;;;;;;5103500;28;20115;-63
2023/06/05 09:34:24;;;;;;;5.07;2.53;;;21.30;99.90;;;;;;5101578;28;20020;-63
2023/06/05 09:36:49;;;;;;;10.63;2.47;;;21.50;99.90;;;;;;5101932;28;20050;-64
2023/06/05 09:39:16;;;;;;;13.95;2.80;;;21.60;99.90;;;;;;5104950;28;20477;-62
2023/06/05 09:41:44;;;;;;;8.32;2.65;;;21.60;99.90;;;;;;5100740;28;20559;-62
2023/06/05 09:44:10;;;;;;;5.75;2.45;;;21.80;99.90;;;;;;5107298;28;20099;-64
2023/06/05 09:47:09;;;;;;;6.18;3.03;;;21.90;99.90;;;;;;5106670;28;20032;-64
2023/06/05 09:49:41;;;;;;;7.45;2.17;;;22.00;99.90;;;;;;5103951;28;20040;-64
2023/06/05 09:52:12;;;;;;;4.28;2.20;;;22.20;99.90;;;;;;5105574;28;20788;-64
2023/06/05 09:54:44;;;;;;;10.43;2.42;;;22.10;99.90;;;;;;5106740;28;20467;-63
2023/06/05 09:57:11;;;;;;;6.28;2.33;;;22.20;99.90;;;;;;5104286;28;20126;-63
2023/06/05 09:59:59;;;;;;;8.68;2.92;;;22.50;99.90;;;;;;5106943;28;20027;-60
2023/06/05 10:02:32;;;;;;;6.35;2.15;;;22.70;99.90;;;;;;5104419;28;20385;-64
2023/06/05 10:05:03;;;;;;;4.00;2.33;;;22.90;99.90;;;;;;5106572;28;20705;-62
2023/06/05 10:07:30;;;;;;;23.40;3.05;;;23.00;99.90;;;;;;5107134;28;20443;-60
2023/06/05 10:09:57;;;;;;;4.32;2.10;;;23.30;99.90;;;;;;5103807;28;20106;-63
2023/06/05 10:12:26;;;;;;;3.72;2.05;;;23.60;99.90;;;;;;5105356;28;20032;-64
2023/06/05 10:14:54;;;;;;;5.75;1.92;;;23.90;99.90;;;;;;5099440;28;20016;-63
2023/06/05 10:17:21;;;;;;;4.30;2.10;;;24.10;99.90;;;;;;5105900;28;20089;-61
2023/06/05 10:19:46;;;;;;;4.15;2.00;;;24.40;99.90;;;;;;5105054;28;20115;-63
2023/06/05 10:22:13;;;;;;;5.75;1.80;;;24.60;99.30;;;;;;5103915;28;20096;-63
2023/06/05 10:24:48;;;;;;;3.90;1.80;;;24.50;97.20;;;;;;5104549;28;20020;-64
2023/06/05 10:27:27;;;;;;;4.68;2.03;;;24.60;96.10;;;;;;5106749;28;20050;-63
2023/06/05 10:30:06;;;;;;;9.40;2.00;;;24.70;96.20;;;;;;5106360;28;20501;-63
2023/06/05 10:32:47;;;;;;;6.10;2.13;;;24.70;98.00;;;;;;5104101;28;20023;-63
2023/06/05 10:36:00;;;;;;;2.92;1.77;;;25.10;95.70;;;;;;5107340;28;20035;-63
2023/06/05 10:38:27;;;;;;;5.07;2.30;;;25.40;95.90;;;;;;5043659;28;20024;-63
2023/06/05 10:40:58;;;;;;;6.68;2.17;;;25.50;92.60;;;;;;5086166;28;20044;-63
2023/06/05 10:43:29;;;;;;;4.40;1.80;;;25.50;91.80;;;;;;5106716;28;20030;-62
2023/06/05 10:45:56;;;;;;;8.55;2.40;;;25.50;94.10;;;;;;5105623;28;20031;-63
2023/06/05 10:48:41;;;;;;;4.82;2.40;;;25.80;95.50;;;;;;5107112;28;20019;-63
2023/06/05 10:51:37;;;;;;;4.70;1.88;;;25.90;93.40;;;;;;5104571;28;20023;-64
2023/06/05 10:54:05;;;;;;;5.18;2.10;;;26.00;90.10;;;;;;5106303;27;20077;-63
2023/06/05 10:56:57;;;;;;;5.93;2.20;;;26.00;88.70;;;;;;5105300;28;20016;-60
2023/06/05 10:59:28;;;;;;;2.72;2.00;;;26.40;89.20;;;;;;5103004;28;20031;-61
2023/06/05 11:02:06;;;;;;;2.97;2.13;;;26.70;86.00;;;;;;5103984;27;20047;-62
2023/06/05 11:04:47;;;;;;;5.32;1.98;;;26.60;84.00;;;;;;5106165;28;20083;-60
2023/06/05 11:07:20;;;;;;;6.40;2.70;;;26.20;83.50;;;;;;5105542;28;20102;-63
2023/06/05 11:10:20;;;;;;;4.88;2.03;;;26.10;83.10;;;;;;5097278;28;20077;-62
2023/06/05 11:12:46;;;;;;;3.45;2.05;;;26.10;82.30;;;;;;5102501;28;20043;-62
2023/06/05 11:15:14;;;;;;;4.68;2.20;;;26.00;81.30;;;;;;5103241;28;20089;-63
2023/06/05 11:17:44;;;;;;;6.18;2.22;;;26.10;80.90;;;;;;5104776;27;20038;-62
2023/06/05 11:20:25;;;;;;;6.65;2.85;;;26.50;79.30;;;;;;5095221;28;20030;-62
2023/06/05 11:22:53;;;;;;;6.78;2.17;;;26.50;76.10;;;;;;5102008;28;20027;-62
2023/06/05 11:25:24;;;;;;;3.67;2.20;;;26.70;74.50;;;;;;5099736;28;20046;-61
2023/06/05 11:28:10;;;;;;;6.78;2.38;;;26.80;86.90;;;;;;5106388;28;20051;-63
2023/06/05 11:30:43;;;;;;;7.38;2.20;;;27.30;84.40;;;;;;5101985;28;20046;-61
2023/06/05 11:33:14;;;;;;;2.63;2.00;;;27.50;82.60;;;;;;5099139;28;20062;-61
2023/06/05 11:35:45;;;;;;;5.15;2.00;;;27.50;75.60;;;;;;5104311;28;20329;-60
2023/06/05 11:38:19;;;;;;;5.00;2.17;;;27.50;80.50;;;;;;5099284;28;20028;-63
2023/06/05 11:40:45;;;;;;;6.13;2.57;;;27.70;73.80;;;;;;5099561;28;20032;-62
2023/06/05 11:43:12;;;;;;;7.93;2.30;;;28.00;75.40;;;;;;5100929;28;20031;-62
2023/06/05 11:45:40;;;;;;;5.88;2.40;;;28.30;69.50;;;;;;5098869;28;20039;-62
2023/06/05 11:48:10;;;;;;;5.38;2.28;;;28.00;76.00;;;;;;5101610;28;20521;-62
2023/06/05 11:50:37;;;;;;;7.93;2.40;;;27.70;78.30;;;;;;5097730;28;20031;-61
2023/06/05 11:53:10;;;;;;;4.55;2.50;;;27.90;78.70;;;;;;5101808;28;20103;-62
2023/06/05 11:58:30;;;;;;;3.53;2.17;;;28.50;68.20;;;;;;5101705;28;20028;-63
2023/06/05 12:01:22;;;;;;;4.07;2.08;;;28.60;69.80;;;;;;5098645;28;20066;-61
2023/06/05 12:03:49;;;;;;;4.35;2.20;;;28.70;69.00;;;;;;5100238;28;20024;-61
2023/06/05 12:06:17;;;;;;;3.58;2.03;;;28.80;70.10;;;;;;5103180;28;20019;-61
2023/06/05 12:08:44;;;;;;;3.45;1.67;;;28.50;73.00;;;;;;5097688;28;20028;-62
2023/06/05 12:11:24;;;;;;;6.07;2.28;;;28.50;71.10;;;;;;5095596;28;20115;-63
2023/06/05 12:13:54;;;;;;;6.00;2.50;;;28.50;72.40;;;;;;5103406;28;20059;-62
2023/06/05 12:16:33;;;;;;;3.00;2.08;;;28.70;76.30;;;;;;5096596;28;20078;-62
2023/06/05 12:18:59;;;;;;;4.35;2.17;;;28.60;71.40;;;;;;5095591;28;20093;-63
2023/06/05 12:21:27;;;;;;;4.75;2.13;;;28.40;68.90;;;;;;5091009;28;20036;-62
2023/06/05 12:24:02;;;;;;;4.95;2.00;;;28.60;64.50;;;;;;5101397;28;20139;-62
2023/06/05 12:26:32;;;;;;;8.40;2.45;;;28.40;65.60;;;;;;5100232;28;20047;-63
2023/06/05 12:29:05;;;;;;;8.88;2.22;;;28.70;72.10;;;;;;5104142;28;20024;-62
2023/06/05 12:31:35;;;;;;;4.00;1.93;;;28.80;74.40;;;;;;5095042;28;20574;-62
2023/06/05 12:34:03;;;;;;;7.47;2.03;;;28.90;65.90;;;;;;5100505;28;20301;-62
2023/06/05 12:36:29;;;;;;;4.90;2.15;;;29.00;67.90;;;;;;5105600;28;20631;-62
2023/06/05 12:38:55;;;;;;;8.07;2.10;;;29.20;70.40;;;;;;5099787;28;20020;-62
2023/06/05 12:41:21;;;;;;;4.43;2.22;;;29.10;73.30;;;;;;5100978;28;20095;-63
2023/06/05 12:43:59;;;;;;;5.40;2.55;;;29.30;67.00;;;;;;5101344;28;20451;-60
2023/06/05 12:46:25;;;;;;;5.55;2.08;;;29.20;66.90;;;;;;5102154;28;20027;-63
2023/06/05 12:48:51;;;;;;;2.58;1.92;;;28.90;63.40;;;;;;5099021;28;20047;-62
2023/06/05 12:51:17;;;;;;;3.95;2.13;;;28.70;68.00;;;;;;5101470;28;20428;-63
2023/06/05 12:53:42;;;;;;;5.47;2.40;;;29.00;67.20;;;;;;5101495;28;20035;-62